Metar z połowy godziny Komunikat METAR ze strony awiacja.imgw.pl Metar G30 EPSC METAR EPSC 190930Z 29005KT 9999 SCT002 BKN003 11/10 Q1025 =